Time;durP1;ratioP1;P1;durP2;ratioP2;P2;SDS_P1;SDS_P2;PMS_P1;PMS_P2;Temp;Humidity;BMP_temperature;BMP_pressure;BME280_temperature;BME280_humidity;BME280_pressure;Samples;Min_cycle;Max_cycle;Signal;HPM_P1;HPM_P2
2023/09/06 00:02:25;;;;;;;16.40;11.13;;;;;;;;;;5028015;28;20056;-59
2023/09/06 00:04:51;;;;;;;16.10;11.97;;;;;;;;;;5028164;28;20088;-59
2023/09/06 00:07:17;;;;;;;14.00;11.80;;;;;;;;;;5028641;28;20578;-59
2023/09/06 00:09:43;;;;;;;16.93;10.90;;;;;;;;;;5028238;28;20060;-59
2023/09/06 00:12:09;;;;;;;15.37;12.07;;;;;;;;;;5027941;28;20049;-59
2023/09/06 00:14:36;;;;;;;20.23;12.33;;;;;;;;;;5027893;28;20511;-59
2023/09/06 00:17:02;;;;;;;19.07;13.47;;;;;;;;;;5028379;28;20045;-59
2023/09/06 00:19:29;;;;;;;15.93;11.77;;;;;;;;;;5028338;28;20097;-59
2023/09/06 00:21:55;;;;;;;14.83;11.47;;;;;;;;;;5027544;28;20538;-59
2023/09/06 00:24:21;;;;;;;19.03;12.23;;;;;;;;;;5027951;28;20516;-61
2023/09/06 00:26:47;;;;;;;16.60;11.77;;;;;;;;;;5029954;28;20084;-60
2023/09/06 00:29:14;;;;;;;20.80;13.70;;;;;;;;;;5031708;28;20089;-59
2023/09/06 00:31:40;;;;;;;16.43;11.47;;;;;;;;;;5031861;28;20049;-59
2023/09/06 00:34:06;;;;;;;18.03;12.07;;;;;;;;;;5031668;28;20052;-59
2023/09/06 00:36:33;;;;;;;15.93;11.50;;;;;;;;;;5031358;28;20537;-59
2023/09/06 00:38:59;;;;;;;14.17;10.47;;;;;;;;;;5031929;28;20725;-59
2023/09/06 00:41:26;;;;;;;14.27;11.73;;;;;;;;;;5031526;28;20060;-59
2023/09/06 00:43:53;;;;;;;15.17;10.80;;;;;;;;;;5031420;28;20045;-59
2023/09/06 00:46:20;;;;;;;20.47;12.33;;;;;;;;;;5031442;28;20037;-59
2023/09/06 00:48:50;;;;;;;17.00;11.67;;;;;;;;;;5030339;28;20128;-59
2023/09/06 00:51:16;;;;;;;15.93;12.67;;;;;;;;;;5030958;28;20045;-59
2023/09/06 00:53:43;;;;;;;22.17;13.90;;;;;;;;;;5031399;28;20046;-58
2023/09/06 00:56:10;;;;;;;15.33;11.37;;;;;;;;;;5031421;28;20046;-59
2023/09/06 00:58:38;;;;;;;16.00;12.27;;;;;;;;;;5030631;28;20404;-59
2023/09/06 01:01:04;;;;;;;16.43;12.10;;;;;;;;;;5031393;28;20136;-59
2023/09/06 01:03:30;;;;;;;15.90;11.80;;;;;;;;;;5063583;28;20187;-59
2023/09/06 01:06:03;;;;;;;18.77;11.20;;;;;;;;;;5031459;28;20460;-59
2023/09/06 01:08:36;;;;;;;16.90;11.70;;;;;;;;;;5030780;28;20045;-59
2023/09/06 01:11:14;;;;;;;15.63;9.90;;;;;;;;;;5031005;28;20045;-59
2023/09/06 01:13:40;;;;;;;14.30;9.67;;;;;;;;;;5030975;28;20057;-59
2023/09/06 01:16:06;;;;;;;13.97;8.47;;;;;;;;;;5031090;28;20057;-59
2023/09/06 01:18:33;;;;;;;9.47;7.17;;;;;;;;;;5030851;28;20136;-58
2023/09/06 01:21:05;;;;;;;15.63;10.83;;;;;;;;;;5030508;28;20045;-59
2023/09/06 01:23:36;;;;;;;13.65;10.68;;;;;;;;;;5029528;28;20480;-59
2023/09/06 01:26:03;;;;;;;12.50;8.53;;;;;;;;;;5030461;28;20057;-59
2023/09/06 01:28:29;;;;;;;10.50;8.43;;;;;;;;;;5030996;28;20045;-59
2023/09/06 01:30:55;;;;;;;12.43;9.13;;;;;;;;;;5030884;28;20049;-59
2023/09/06 01:33:22;;;;;;;12.77;9.90;;;;;;;;;;5030453;28;20068;-59
2023/09/06 01:35:49;;;;;;;18.90;10.90;;;;;;;;;;5030151;28;20443;-59
2023/09/06 01:38:15;;;;;;;14.87;11.20;;;;;;;;;;5030351;28;20472;-59
2023/09/06 01:40:41;;;;;;;14.40;11.03;;;;;;;;;;5030393;28;20423;-59
2023/09/06 01:43:09;;;;;;;16.73;12.03;;;;;;;;;;5030448;28;20073;-59
2023/09/06 01:45:36;;;;;;;15.03;11.47;;;;;;;;;;5030599;28;20049;-59
2023/09/06 01:48:03;;;;;;;17.27;11.93;;;;;;;;;;5029578;28;20045;-59
2023/09/06 01:50:29;;;;;;;16.17;12.33;;;;;;;;;;5030566;28;20045;-59
2023/09/06 01:52:57;;;;;;;13.57;11.60;;;;;;;;;;5030456;28;20513;-59
2023/09/06 01:55:23;;;;;;;17.73;12.33;;;;;;;;;;5029992;28;20053;-59
2023/09/06 01:57:49;;;;;;;17.73;12.07;;;;;;;;;;5029913;28;20042;-59
2023/09/06 02:00:20;;;;;;;15.00;11.10;;;;;;;;;;5030036;28;20050;-59
2023/09/06 02:02:46;;;;;;;17.83;12.00;;;;;;;;;;5030272;28;20120;-59
2023/09/06 02:05:12;;;;;;;15.80;10.73;;;;;;;;;;5029732;28;20045;-59
2023/09/06 02:07:38;;;;;;;15.03;10.77;;;;;;;;;;5029958;28;20499;-59
2023/09/06 02:10:05;;;;;;;17.03;11.50;;;;;;;;;;5029972;28;20053;-59
2023/09/06 02:12:31;;;;;;;16.57;11.50;;;;;;;;;;5029731;28;20088;-59
2023/09/06 02:14:57;;;;;;;18.40;11.87;;;;;;;;;;5029865;28;20079;-59
2023/09/06 02:17:24;;;;;;;16.37;10.90;;;;;;;;;;5029729;28;20112;-59
2023/09/06 02:19:50;;;;;;;22.47;12.97;;;;;;;;;;5029590;28;20452;-59
2023/09/06 02:22:18;;;;;;;16.53;11.10;;;;;;;;;;5029602;28;20496;-59
2023/09/06 02:24:44;;;;;;;18.10;13.57;;;;;;;;;;5029966;28;20053;-59
2023/09/06 02:27:12;;;;;;;18.83;11.50;;;;;;;;;;5029060;28;20046;-59
2023/09/06 02:29:39;;;;;;;13.17;9.33;;;;;;;;;;5029477;28;20415;-59
2023/09/06 02:32:05;;;;;;;15.63;11.60;;;;;;;;;;5029470;28;20476;-59
2023/09/06 02:34:31;;;;;;;15.10;11.33;;;;;;;;;;5029418;28;20085;-59
2023/09/06 02:36:57;;;;;;;16.53;12.73;;;;;;;;;;5029689;28;20084;-59
2023/09/06 02:39:27;;;;;;;22.23;15.13;;;;;;;;;;5029374;28;20124;-59
2023/09/06 02:41:53;;;;;;;22.10;14.57;;;;;;;;;;5028655;28;20103;-60
2023/09/06 02:44:19;;;;;;;21.43;15.80;;;;;;;;;;5029188;28;20053;-59
2023/09/06 02:46:45;;;;;;;22.27;15.97;;;;;;;;;;5029492;28;20049;-59
2023/09/06 02:49:12;;;;;;;23.83;16.70;;;;;;;;;;5028450;28;20076;-59
2023/09/06 02:51:43;;;;;;;24.97;17.10;;;;;;;;;;5029439;28;20042;-59
2023/09/06 02:54:10;;;;;;;24.30;16.77;;;;;;;;;;5029214;28;20080;-59
2023/09/06 02:56:38;;;;;;;26.73;18.90;;;;;;;;;;5028663;28;20068;-59
2023/09/06 02:59:07;;;;;;;27.77;18.27;;;;;;;;;;5029053;28;20042;-59
2023/09/06 03:01:35;;;;;;;27.63;18.13;;;;;;;;;;5029377;28;20041;-59
2023/09/06 03:04:06;;;;;;;26.20;18.53;;;;;;;;;;5029116;28;20124;-59
2023/09/06 03:06:33;;;;;;;27.50;16.83;;;;;;;;;;5028833;28;20136;-59
2023/09/06 03:09:00;;;;;;;25.40;18.23;;;;;;;;;;5028902;28;20548;-59
2023/09/06 03:11:26;;;;;;;20.43;15.27;;;;;;;;;;5028960;28;20049;-59
2023/09/06 03:13:55;;;;;;;28.30;17.50;;;;;;;;;;5029496;28;20064;-60
2023/09/06 03:16:22;;;;;;;23.90;16.97;;;;;;;;;;5028755;28;20136;-59
2023/09/06 03:18:54;;;;;;;24.67;16.50;;;;;;;;;;5028359;28;20049;-59
2023/09/06 03:21:20;;;;;;;27.23;18.03;;;;;;;;;;5028641;28;20160;-59
2023/09/06 03:23:46;;;;;;;22.07;15.77;;;;;;;;;;5028763;28;20041;-59
2023/09/06 03:26:13;;;;;;;23.90;16.60;;;;;;;;;;5028560;28;20096;-59
2023/09/06 03:28:40;;;;;;;24.10;16.50;;;;;;;;;;5028446;28;20128;-59
2023/09/06 03:31:10;;;;;;;32.70;20.67;;;;;;;;;;5028781;28;20080;-59
2023/09/06 03:33:36;;;;;;;25.87;19.70;;;;;;;;;;5028713;28;20055;-59
2023/09/06 03:36:07;;;;;;;28.37;18.53;;;;;;;;;;5028320;28;20073;-59
2023/09/06 03:38:36;;;;;;;28.67;19.07;;;;;;;;;;5028218;28;20045;-59
2023/09/06 03:41:02;;;;;;;25.43;18.17;;;;;;;;;;5028225;28;20065;-59
2023/09/06 03:43:32;;;;;;;30.47;18.90;;;;;;;;;;5028653;28;20053;-59
2023/09/06 03:45:58;;;;;;;34.50;20.97;;;;;;;;;;5028922;28;20034;-59
2023/09/06 03:48:27;;;;;;;33.83;21.23;;;;;;;;;;5028514;28;20057;-59
2023/09/06 03:50:59;;;;;;;25.03;17.17;;;;;;;;;;5028324;28;20042;-59
2023/09/06 03:53:26;;;;;;;30.90;20.07;;;;;;;;;;5028744;28;20049;-59
2023/09/06 03:55:52;;;;;;;29.93;17.67;;;;;;;;;;5060408;28;20037;-59
2023/09/06 03:58:18;;;;;;;31.10;18.93;;;;;;;;;;5028543;28;20046;-59
2023/09/06 04:00:45;;;;;;;26.13;18.33;;;;;;;;;;5028345;28;20041;-59
2023/09/06 04:03:11;;;;;;;27.03;18.60;;;;;;;;;;5032840;28;20456;-59
2023/09/06 04:05:37;;;;;;;32.17;21.23;;;;;;;;;;5031976;28;20045;-59
2023/09/06 04:08:04;;;;;;;21.53;15.83;;;;;;;;;;5032141;28;20523;-59
2023/09/06 04:10:40;;;;;;;30.43;20.27;;;;;;;;;;5032346;28;20037;-59
2023/09/06 04:13:07;;;;;;;27.67;19.70;;;;;;;;;;5031955;28;20132;-59
2023/09/06 04:15:36;;;;;;;24.13;17.73;;;;;;;;;;5031766;28;20045;-59
2023/09/06 04:18:03;;;;;;;27.17;18.33;;;;;;;;;;5032290;28;20511;-59
2023/09/06 04:20:31;;;;;;;32.83;20.17;;;;;;;;;;5032322;28;20411;-59
2023/09/06 04:22:58;;;;;;;30.93;18.43;;;;;;;;;;5032095;28;20053;-59
2023/09/06 04:25:26;;;;;;;27.83;17.97;;;;;;;;;;5031759;28;20133;-59
2023/09/06 04:27:54;;;;;;;30.27;19.70;;;;;;;;;;5031814;28;20051;-59
2023/09/06 04:30:20;;;;;;;27.70;17.90;;;;;;;;;;5031380;28;20061;-59
2023/09/06 04:32:46;;;;;;;29.17;18.93;;;;;;;;;;5031829;28;20052;-59
2023/09/06 04:35:15;;;;;;;30.03;19.60;;;;;;;;;;5031728;28;20045;-59
2023/09/06 04:37:42;;;;;;;28.97;19.50;;;;;;;;;;5032168;28;20053;-59
2023/09/06 04:40:11;;;;;;;36.07;22.27;;;;;;;;;;5030992;28;20053;-59
2023/09/06 04:42:39;;;;;;;25.73;17.47;;;;;;;;;;5031706;28;20132;-59
2023/09/06 04:45:05;;;;;;;21.73;14.73;;;;;;;;;;5031490;28;20183;-59
2023/09/06 04:47:31;;;;;;;19.63;16.07;;;;;;;;;;5031750;28;20095;-59
2023/09/06 04:49:58;;;;;;;25.97;18.23;;;;;;;;;;5031544;28;20074;-58
2023/09/06 04:52:24;;;;;;;35.37;20.17;;;;;;;;;;5031359;28;20045;-59
2023/09/06 04:54:52;;;;;;;37.97;20.53;;;;;;;;;;5031068;28;20046;-59
2023/09/06 04:57:18;;;;;;;28.13;19.23;;;;;;;;;;5031375;28;20041;-59
2023/09/06 04:59:44;;;;;;;32.57;21.40;;;;;;;;;;5031424;28;20060;-58
2023/09/06 05:02:10;;;;;;;26.87;19.63;;;;;;;;;;5030547;28;20041;-59
2023/09/06 05:04:36;;;;;;;37.07;21.37;;;;;;;;;;5031229;28;20436;-60
2023/09/06 05:07:05;;;;;;;29.37;20.90;;;;;;;;;;5031349;28;20068;-59
2023/09/06 05:09:31;;;;;;;27.43;19.60;;;;;;;;;;5031112;28;20049;-59
2023/09/06 05:11:57;;;;;;;33.67;19.97;;;;;;;;;;5030185;28;20045;-59
2023/09/06 05:14:23;;;;;;;31.97;20.70;;;;;;;;;;5030413;28;20135;-59
2023/09/06 05:16:49;;;;;;;30.93;19.73;;;;;;;;;;5031053;28;20045;-59
2023/09/06 05:19:15;;;;;;;30.70;20.50;;;;;;;;;;5030577;28;20042;-60
2023/09/06 05:21:41;;;;;;;27.97;20.20;;;;;;;;;;5030707;28;20377;-59
2023/09/06 05:24:07;;;;;;;29.67;20.13;;;;;;;;;;5030739;28;20095;-59
2023/09/06 05:26:33;;;;;;;26.03;19.13;;;;;;;;;;5030377;28;20414;-59
2023/09/06 05:28:59;;;;;;;24.10;19.23;;;;;;;;;;5030554;28;20049;-60
2023/09/06 05:31:25;;;;;;;22.30;17.43;;;;;;;;;;5030760;28;20385;-59
2023/09/06 05:33:51;;;;;;;22.50;16.00;;;;;;;;;;5030201;28;20037;-59
2023/09/06 05:36:17;;;;;;;25.90;18.57;;;;;;;;;;5029245;28;20469;-59
2023/09/06 05:38:43;;;;;;;32.30;20.97;;;;;;;;;;5030594;28;20046;-59
2023/09/06 05:41:10;;;;;;;35.47;22.90;;;;;;;;;;5030250;28;20055;-60
2023/09/06 05:43:36;;;;;;;30.60;20.40;;;;;;;;;;5029848;28;20128;-59
2023/09/06 05:46:02;;;;;;;27.70;18.60;;;;;;;;;;5030515;28;20545;-60
2023/09/06 05:48:28;;;;;;;17.33;13.70;;;;;;;;;;5030340;28;20049;-59
2023/09/06 05:50:54;;;;;;;24.77;18.23;;;;;;;;;;5030203;28;20534;-60
2023/09/06 05:53:20;;;;;;;16.40;11.80;;;;;;;;;;5030164;28;20049;-59
2023/09/06 05:55:46;;;;;;;29.47;19.80;;;;;;;;;;5030250;28;20042;-59
2023/09/06 05:58:12;;;;;;;14.23;12.33;;;;;;;;;;5029592;28;20538;-60
2023/09/06 06:00:38;;;;;;;16.53;12.17;;;;;;;;;;5029760;28;20049;-59
2023/09/06 06:03:04;;;;;;;13.70;12.00;;;;;;;;;;5030247;28;20507;-59
2023/09/06 06:05:30;;;;;;;16.90;13.53;;;;;;;;;;5030125;28;20056;-60
2023/09/06 06:07:57;;;;;;;15.10;12.90;;;;;;;;;;5029434;28;20500;-59
2023/09/06 06:10:23;;;;;;;15.10;12.10;;;;;;;;;;5029603;28;20464;-60
2023/09/06 06:12:49;;;;;;;16.67;12.50;;;;;;;;;;5029988;28;20132;-60
2023/09/06 06:15:15;;;;;;;19.40;12.23;;;;;;;;;;5029768;28;20140;-59
2023/09/06 06:17:42;;;;;;;14.80;11.97;;;;;;;;;;5030116;28;20405;-59
2023/09/06 06:20:10;;;;;;;12.30;10.30;;;;;;;;;;5029093;28;20041;-59
2023/09/06 06:22:40;;;;;;;14.47;11.30;;;;;;;;;;5029528;28;20049;-60
2023/09/06 06:25:07;;;;;;;19.27;13.27;;;;;;;;;;5028623;28;20464;-59
2023/09/06 06:27:33;;;;;;;11.73;10.30;;;;;;;;;;5029704;28;20501;-59
2023/09/06 06:29:59;;;;;;;11.83;7.87;;;;;;;;;;5029563;28;20049;-59
2023/09/06 06:32:25;;;;;;;12.33;9.60;;;;;;;;;;5028844;28;20050;-60
2023/09/06 06:34:53;;;;;;;11.80;9.77;;;;;;;;;;5029724;28;20041;-60
2023/09/06 06:37:19;;;;;;;12.13;8.13;;;;;;;;;;5029521;28;20050;-60
2023/09/06 06:39:45;;;;;;;9.87;8.13;;;;;;;;;;5029004;28;20064;-59
2023/09/06 06:42:11;;;;;;;10.97;9.10;;;;;;;;;;5029250;28;20053;-60
2023/09/06 06:44:37;;;;;;;12.80;9.30;;;;;;;;;;5029263;28;20518;-60
2023/09/06 06:47:04;;;;;;;11.43;8.10;;;;;;;;;;5028655;28;20065;-60
2023/09/06 06:49:30;;;;;;;11.27;8.40;;;;;;;;;;5029241;28;20069;-60
2023/09/06 06:51:56;;;;;;;11.63;8.90;;;;;;;;;;5029094;28;20049;-60
2023/09/06 06:54:22;;;;;;;10.40;8.27;;;;;;;;;;5028601;28;20048;-61
2023/09/06 06:56:48;;;;;;;11.37;8.00;;;;;;;;;;5029222;28;20423;-60
2023/09/06 06:59:14;;;;;;;9.50;6.87;;;;;;;;;;5028556;28;20041;-60
2023/09/06 07:01:40;;;;;;;7.03;6.33;;;;;;;;;;5028852;28;20046;-60
2023/09/06 07:04:06;;;;;;;12.00;6.77;;;;;;;;;;5028819;28;20042;-60
2023/09/06 07:06:32;;;;;;;7.67;6.50;;;;;;;;;;5028900;28;20144;-60
2023/09/06 07:09:03;;;;;;;9.13;6.77;;;;;;;;;;5028745;28;20415;-60
2023/09/06 07:11:29;;;;;;;8.80;6.40;;;;;;;;;;5028879;28;20466;-60
2023/09/06 07:13:55;;;;;;;9.07;6.70;;;;;;;;;;5028164;28;20033;-60
2023/09/06 07:16:21;;;;;;;11.97;6.07;;;;;;;;;;5028626;28;20049;-60
2023/09/06 07:18:47;;;;;;;9.30;5.57;;;;;;;;;;5028860;28;20132;-60
2023/09/06 07:21:14;;;;;;;8.60;6.27;;;;;;;;;;5028398;28;20080;-60
2023/09/06 07:23:40;;;;;;;7.17;5.43;;;;;;;;;;5028766;28;20045;-60
2023/09/06 07:26:06;;;;;;;6.50;5.33;;;;;;;;;;5028114;28;20058;-60
2023/09/06 07:28:39;;;;;;;13.00;6.33;;;;;;;;;;5028500;28;20091;-60
2023/09/06 07:31:05;;;;;;;;;;;;;;;;;;5029059;28;20542;-60
2023/09/06 07:33:31;;;;;;;8.43;6.10;;;;;;;;;;5028415;28;19921;-60
2023/09/06 07:35:58;;;;;;;7.43;6.00;;;;;;;;;;5027816;28;20046;-60
2023/09/06 07:38:24;;;;;;;7.50;6.30;;;;;;;;;;5028279;28;20099;-60
2023/09/06 07:41:17;;;;;;;10.13;6.53;;;;;;;;;;5028381;28;20049;-60
2023/09/06 07:43:43;;;;;;;7.20;5.53;;;;;;;;;;5027550;28;20045;-60
2023/09/06 07:46:09;;;;;;;7.37;6.03;;;;;;;;;;5028460;28;20381;-61
2023/09/06 07:48:36;;;;;;;9.23;5.80;;;;;;;;;;5028382;28;20041;-60
2023/09/06 07:51:04;;;;;;;11.27;6.60;;;;;;;;;;5028333;28;20045;-61
2023/09/06 07:53:30;;;;;;;9.13;5.60;;;;;;;;;;5028036;28;20426;-62
2023/09/06 07:55:56;;;;;;;8.33;6.03;;;;;;;;;;5028383;28;20088;-60
2023/09/06 07:58:22;;;;;;;8.17;5.30;;;;;;;;;;5027827;28;20072;-60
2023/09/06 08:00:48;;;;;;;8.37;5.33;;;;;;;;;;5028266;28;20049;-61
2023/09/06 08:03:14;;;;;;;5.77;4.67;;;;;;;;;;5027748;28;20041;-61
2023/09/06 08:05:41;;;;;;;7.00;5.30;;;;;;;;;;5028456;28;20132;-60
2023/09/06 08:08:09;;;;;;;6.63;5.07;;;;;;;;;;5028071;28;20053;-60
2023/09/06 08:10:35;;;;;;;6.83;5.10;;;;;;;;;;5027628;28;20042;-61
2023/09/06 08:13:03;;;;;;;5.67;4.17;;;;;;;;;;5028020;28;20037;-60
2023/09/06 08:15:29;;;;;;;5.83;3.80;;;;;;;;;;5028146;28;20046;-60
2023/09/06 08:17:55;;;;;;;10.30;4.13;;;;;;;;;;5028041;28;20056;-61
2023/09/06 08:20:21;;;;;;;6.87;4.03;;;;;;;;;;5028150;28;20073;-60
2023/09/06 08:22:47;;;;;;;4.23;3.17;;;;;;;;;;5028016;28;20095;-61
2023/09/06 08:25:14;;;;;;;8.03;3.70;;;;;;;;;;5027256;28;20045;-61
2023/09/06 08:27:40;;;;;;;4.40;2.93;;;;;;;;;;5028023;28;20041;-60
2023/09/06 08:30:10;;;;;;;6.03;2.80;;;;;;;;;;5027998;28;20049;-60
2023/09/06 08:32:36;;;;;;;5.70;2.77;;;;;;;;;;5027982;28;20052;-61
2023/09/06 08:35:02;;;;;;;4.20;2.40;;;;;;;;;;5027423;28;20052;-61
2023/09/06 08:37:28;;;;;;;5.90;2.67;;;;;;;;;;5028026;28;20442;-61
2023/09/06 08:39:54;;;;;;;5.43;2.70;;;;;;;;;;5027578;28;20115;-60
2023/09/06 08:42:21;;;;;;;4.20;2.23;;;;;;;;;;5027882;28;20511;-60
2023/09/06 08:44:48;;;;;;;5.10;2.57;;;;;;;;;;5027436;28;20053;-61
2023/09/06 08:47:16;;;;;;;6.10;2.63;;;;;;;;;;5028334;28;20049;-60
2023/09/06 08:49:43;;;;;;;5.07;2.53;;;;;;;;;;5031368;28;20136;-60
2023/09/06 08:52:10;;;;;;;6.27;3.07;;;;;;;;;;5030844;28;20510;-60
2023/09/06 08:54:36;;;;;;;5.53;2.88;;;;;;;;;;5031128;28;20411;-60
2023/09/06 08:57:02;;;;;;;3.87;2.80;;;;;;;;;;5031269;28;20038;-60
2023/09/06 08:59:32;;;;;;;4.57;2.90;;;;;;;;;;5031327;28;20053;-60
2023/09/06 09:01:58;;;;;;;7.32;2.67;;;;;;;;;;5030767;28;20045;-60
2023/09/06 09:04:24;;;;;;;5.28;2.60;;;;;;;;;;5031111;28;20451;-60
2023/09/06 09:06:50;;;;;;;3.75;2.72;;;;;;;;;;5031233;28;20071;-60
2023/09/06 09:09:19;;;;;;;5.55;2.50;;;;;;;;;;5030689;28;20085;-60
2023/09/06 09:11:55;;;;;;;6.70;3.05;;;;;;;;;;5030642;28;20041;-60
2023/09/06 09:14:24;;;;;;;6.13;2.80;;;;;;;;;;5031018;28;20050;-60
2023/09/06 09:17:00;;;;;;;4.00;3.05;;;;;;;;;;5031164;28;20084;-61
2023/09/06 09:19:26;;;;;;;3.55;2.28;;;;;;;;;;5030798;28;20115;-60
2023/09/06 09:21:55;;;;;;;5.80;2.75;;;;;;;;;;5030935;28;20057;-60
2023/09/06 09:24:25;;;;;;;8.48;3.15;;;;;;;;;;5030754;28;20092;-61
2023/09/06 09:26:51;;;;;;;3.50;2.58;;;;;;;;;;5030807;28;20049;-60
2023/09/06 09:29:17;;;;;;;5.32;2.78;;;;;;;;;;5062424;28;20046;-61
2023/09/06 09:31:44;;;;;;;4.80;2.88;;;;;;;;;;5030744;28;20051;-61
2023/09/06 09:34:11;;;;;;;4.22;2.88;;;;;;;;;;5030323;28;20051;-61
2023/09/06 09:36:38;;;;;;;4.35;2.83;;;;;;;;;;5030942;28;20045;-61
2023/09/06 09:39:07;;;;;;;4.45;2.15;;;;;;;;;;5030421;28;20091;-60
2023/09/06 09:41:33;;;;;;;7.03;2.55;;;;;;;;;;5030214;28;20135;-61
2023/09/06 09:44:13;;;;;;;7.13;2.63;;;;;;;;;;5061852;28;20551;-61
2023/09/06 09:46:39;;;;;;;5.30;2.60;;;;;;;;;;5030524;28;20087;-61
2023/09/06 09:49:07;;;;;;;4.70;2.60;;;;;;;;;;5030170;28;20053;-61
2023/09/06 09:51:33;;;;;;;3.88;2.45;;;;;;;;;;5030175;28;20053;-60
2023/09/06 09:54:00;;;;;;;5.25;2.70;;;;;;;;;;5029721;28;20419;-61
2023/09/06 09:56:27;;;;;;;4.78;2.40;;;;;;;;;;5030104;28;20462;-61
2023/09/06 09:58:57;;;;;;;4.35;2.80;;;;;;;;;;5030058;28;20132;-61
2023/09/06 10:01:23;;;;;;;6.32;2.60;;;;;;;;;;5029741;28;20438;-60
2023/09/06 10:03:50;;;;;;;6.80;2.78;;;;;;;;;;5029981;28;20046;-61
2023/09/06 10:06:16;;;;;;;5.85;2.63;;;;;;;;;;5029556;28;20048;-61
2023/09/06 10:08:44;;;;;;;3.33;2.70;;;;;;;;;;5029559;28;20052;-61
2023/09/06 10:11:10;;;;;;;5.68;2.60;;;;;;;;;;5029861;28;20037;-61
2023/09/06 10:13:39;;;;;;;5.13;2.67;;;;;;;;;;5029863;28;20124;-61
2023/09/06 10:16:07;;;;;;;6.60;2.80;;;;;;;;;;5029930;28;20072;-61
2023/09/06 10:18:33;;;;;;;3.65;2.55;;;;;;;;;;5029454;28;20521;-61
2023/09/06 10:21:02;;;;;;;4.93;2.28;;;;;;;;;;5029660;28;20080;-61
2023/09/06 10:23:31;;;;;;;7.88;3.00;;;;;;;;;;5029318;28;20052;-61
2023/09/06 10:25:59;;;;;;;5.07;2.72;;;;;;;;;;5029410;28;20454;-61
2023/09/06 10:28:25;;;;;;;4.90;2.67;;;;;;;;;;5029383;28;20127;-61
2023/09/06 10:31:10;;;;;;;5.35;2.60;;;;;;;;;;5029690;28;20048;-61
2023/09/06 10:33:35;;;;;;;5.13;2.60;;;;;;;;;;5028820;28;20049;-61
2023/09/06 10:36:14;;;;;;;5.28;2.83;;;;;;;;;;5029359;28;20041;-61
2023/09/06 10:38:52;;;;;;;4.70;3.42;;;;;;;;;;5029617;28;20071;-61
2023/09/06 10:41:18;;;;;;;5.80;2.45;;;;;;;;;;5029125;28;20703;-61
2023/09/06 10:43:55;;;;;;;3.50;2.80;;;;;;;;;;5029452;28;20045;-61
2023/09/06 10:46:27;;;;;;;5.95;2.72;;;;;;;;;;5028808;28;20570;-62
2023/09/06 10:49:12;;;;;;;5.18;2.88;;;;;;;;;;5029075;28;20053;-61
2023/09/06 10:51:57;;;;;;;4.47;2.65;;;;;;;;;;5028996;28;20099;-61
2023/09/06 10:54:24;;;;;;;4.50;2.40;;;;;;;;;;5028909;28;20054;-61
2023/09/06 10:56:51;;;;;;;3.80;2.55;;;;;;;;;;5028829;28;20057;-61
2023/09/06 10:59:23;;;;;;;5.00;2.53;;;;;;;;;;5028798;28;20045;-61
2023/09/06 11:02:07;;;;;;;5.53;2.60;;;;;;;;;;5028572;28;20107;-62
2023/09/06 11:04:33;;;;;;;6.57;2.85;;;;;;;;;;5028694;28;20049;-61
2023/09/06 11:07:03;;;;;;;3.33;1.85;;;;;;;;;;5028851;28;20474;-61
2023/09/06 11:09:29;;;;;;;5.30;2.22;;;;;;;;;;5028814;28;20049;-61
2023/09/06 11:11:56;;;;;;;4.80;2.38;;;;;;;;;;5028188;28;20054;-61
2023/09/06 11:14:28;;;;;;;4.10;2.15;;;;;;;;;;5028432;28;20048;-61
2023/09/06 11:16:54;;;;;;;3.25;2.10;;;;;;;;;;5028685;28;20055;-61
2023/09/06 11:19:29;;;;;;;4.13;2.15;;;;;;;;;;5028754;28;20046;-61
2023/09/06 11:22:06;;;;;;;4.07;2.20;;;;;;;;;;5028466;28;20124;-61
2023/09/06 11:24:33;;;;;;;3.47;2.13;;;;;;;;;;5028610;28;20136;-61
2023/09/06 11:27:03;;;;;;;5.22;2.35;;;;;;;;;;5028215;28;20045;-62
2023/09/06 11:29:30;;;;;;;5.90;2.40;;;;;;;;;;5028601;28;20050;-62
2023/09/06 11:32:08;;;;;;;6.22;2.00;;;;;;;;;;5028295;28;20056;-62
2023/09/06 11:34:41;;;;;;;4.05;2.10;;;;;;;;;;5028168;28;20136;-62
2023/09/06 11:37:10;;;;;;;6.57;2.63;;;;;;;;;;5028364;28;20140;-61
2023/09/06 11:39:39;;;;;;;3.78;1.90;;;;;;;;;;5027551;28;20047;-62
2023/09/06 11:42:08;;;;;;;4.03;1.90;;;;;;;;;;5028207;28;20136;-62
2023/09/06 11:44:34;;;;;;;4.65;2.42;;;;;;;;;;5028277;28;20053;-61
2023/09/06 11:47:00;;;;;;;4.63;2.05;;;;;;;;;;5028381;28;20051;-62
2023/09/06 11:49:26;;;;;;;4.97;2.10;;;;;;;;;;5028222;28;20148;-61
2023/09/06 11:51:53;;;;;;;5.53;1.95;;;;;;;;;;5027742;28;20094;-61
2023/09/06 11:54:24;;;;;;;3.53;2.00;;;;;;;;;;5028145;28;20431;-62
2023/09/06 11:56:51;;;;;;;3.13;1.98;;;;;;;;;;5028281;28;20500;-62
2023/09/06 11:59:17;;;;;;;5.72;2.15;;;;;;;;;;5028175;28;20056;-62
2023/09/06 12:01:44;;;;;;;3.35;2.13;;;;;;;;;;5027814;28;20183;-62
2023/09/06 12:04:20;;;;;;;3.15;1.90;;;;;;;;;;5028193;28;20064;-61
2023/09/06 12:06:51;;;;;;;5.07;1.85;;;;;;;;;;5028274;28;20050;-61
2023/09/06 12:09:18;;;;;;;3.33;2.10;;;;;;;;;;5027680;28;20526;-61
2023/09/06 12:11:44;;;;;;;5.43;2.10;;;;;;;;;;5028206;28;20045;-62
2023/09/06 12:14:15;;;;;;;2.78;1.80;;;;;;;;;;5027651;28;20415;-62
2023/09/06 12:16:41;;;;;;;4.28;1.90;;;;;;;;;;5028090;28;20041;-62
2023/09/06 12:19:12;;;;;;;4.45;1.73;;;;;;;;;;5028157;28;20037;-62
2023/09/06 12:21:38;;;;;;;2.83;1.70;;;;;;;;;;5028058;28;20041;-62
2023/09/06 12:24:04;;;;;;;2.97;1.80;;;;;;;;;;5031426;28;20045;-61
2023/09/06 12:26:30;;;;;;;2.70;1.88;;;;;;;;;;5031862;28;20045;-61
2023/09/06 12:28:56;;;;;;;3.38;2.00;;;;;;;;;;5031531;28;20454;-62
2023/09/06 12:31:22;;;;;;;3.50;2.00;;;;;;;;;;5031364;28;20050;-61
2023/09/06 12:33:51;;;;;;;4.30;1.95;;;;;;;;;;5031959;28;20045;-62
2023/09/06 12:36:17;;;;;;;2.90;1.98;;;;;;;;;;5031522;28;20534;-61
2023/09/06 12:38:43;;;;;;;2.72;1.70;;;;;;;;;;5031686;28;20041;-62
2023/09/06 12:41:09;;;;;;;3.95;1.95;;;;;;;;;;5031533;28;20064;-62
2023/09/06 12:43:36;;;;;;;2.47;1.77;;;;;;;;;;5030884;28;20053;-61
2023/09/06 12:46:11;;;;;;;2.38;1.50;;;;;;;;;;5031718;28;20091;-62
2023/09/06 12:48:37;;;;;;;2.30;1.63;;;;;;;;;;5031393;28;20511;-61
2023/09/06 12:51:05;;;;;;;2.92;1.83;;;;;;;;;;5031534;28;20068;-62
2023/09/06 12:53:32;;;;;;;2.50;1.67;;;;;;;;;;5031704;28;20050;-62
2023/09/06 12:55:58;;;;;;;4.90;1.58;;;;;;;;;;5030680;28;20133;-62
2023/09/06 12:58:24;;;;;;;3.50;1.85;;;;;;;;;;5031177;28;20053;-61
2023/09/06 13:00:51;;;;;;;4.65;1.80;;;;;;;;;;5031290;28;20048;-62
2023/09/06 13:03:17;;;;;;;2.60;1.67;;;;;;;;;;5030987;28;20057;-62
2023/09/06 13:05:45;;;;;;;2.90;1.77;;;;;;;;;;5031249;28;20096;-62
2023/09/06 13:08:11;;;;;;;2.55;1.98;;;;;;;;;;5031022;28;20049;-62
2023/09/06 13:10:38;;;;;;;2.45;1.60;;;;;;;;;;5030465;28;20037;-62
2023/09/06 13:13:04;;;;;;;4.03;1.70;;;;;;;;;;5031011;28;20060;-62
2023/09/06 13:15:31;;;;;;;2.60;1.50;;;;;;;;;;5031173;28;20045;-61
2023/09/06 13:17:57;;;;;;;4.05;1.70;;;;;;;;;;5030745;28;20057;-62
2023/09/06 13:20:24;;;;;;;4.03;1.70;;;;;;;;;;5030543;28;20045;-62
2023/09/06 13:22:50;;;;;;;3.25;2.05;;;;;;;;;;5030849;28;20515;-62
2023/09/06 13:25:16;;;;;;;1.90;1.50;;;;;;;;;;5030582;28;20037;-62
2023/09/06 13:27:43;;;;;;;5.35;1.92;;;;;;;;;;5031013;28;20836;-62
2023/09/06 13:30:09;;;;;;;5.88;1.67;;;;;;;;;;5030573;28;20057;-62
2023/09/06 13:32:35;;;;;;;2.40;1.70;;;;;;;;;;5030412;28;20049;-62
2023/09/06 13:35:02;;;;;;;5.38;1.50;;;;;;;;;;5030096;28;20085;-62
2023/09/06 13:37:28;;;;;;;2.38;1.70;;;;;;;;;;5030507;28;20056;-62
2023/09/06 13:39:54;;;;;;;4.80;1.75;;;;;;;;;;5030351;28;20049;-62
2023/09/06 13:42:20;;;;;;;4.13;1.67;;;;;;;;;;5030291;28;20053;-62
2023/09/06 13:44:46;;;;;;;2.63;1.67;;;;;;;;;;5030462;28;20065;-62
2023/09/06 13:47:16;;;;;;;3.15;1.80;;;;;;;;;;5029730;28;20578;-62
2023/09/06 13:49:42;;;;;;;3.38;1.80;;;;;;;;;;5030262;28;20056;-61
2023/09/06 13:52:08;;;;;;;3.60;1.63;;;;;;;;;;5030403;28;20049;-62
2023/09/06 13:54:34;;;;;;;4.88;1.65;;;;;;;;;;5030045;28;20140;-62
2023/09/06 13:57:00;;;;;;;3.20;1.70;;;;;;;;;;5030122;28;20041;-62
2023/09/06 13:59:28;;;;;;;2.63;1.52;;;;;;;;;;5029643;28;20056;-62
2023/09/06 14:01:54;;;;;;;4.38;1.70;;;;;;;;;;5029954;28;20049;-62
2023/09/06 14:04:20;;;;;;;4.50;1.80;;;;;;;;;;5030110;28;20053;-62
2023/09/06 14:06:46;;;;;;;4.53;1.70;;;;;;;;;;5029920;28;20049;-62
2023/09/06 14:09:12;;;;;;;4.40;1.73;;;;;;;;;;5029464;28;20092;-62
2023/09/06 14:11:38;;;;;;;2.38;1.50;;;;;;;;;;5029752;28;20080;-62
2023/09/06 14:14:05;;;;;;;5.65;1.50;;;;;;;;;;5029897;28;20470;-62
2023/09/06 14:16:31;;;;;;;3.85;1.60;;;;;;;;;;5029929;28;20139;-62
2023/09/06 14:18:58;;;;;;;2.20;1.70;;;;;;;;;;5029604;28;20540;-62
2023/09/06 14:21:24;;;;;;;4.75;1.90;;;;;;;;;;5029086;28;20503;-62
2023/09/06 14:23:50;;;;;;;2.95;1.90;;;;;;;;;;5029525;28;20530;-62
2023/09/06 14:26:16;;;;;;;3.60;1.50;;;;;;;;;;5029725;28;20045;-62
2023/09/06 14:28:42;;;;;;;3.47;1.50;;;;;;;;;;5029329;28;20092;-62
2023/09/06 14:31:12;;;;;;;3.30;1.70;;;;;;;;;;5029727;28;20041;-63
2023/09/06 14:33:39;;;;;;;3.20;2.03;;;;;;;;;;5029329;28;20049;-62